LPPR/OPO METAR and TAF weather

Enter ICAO airport designator
Station Type Date Time Source
LPPR METAR 2019/04/21 22:00 UTC NOAA

LPPR 212200Z 13007KT CAVOK 16/12 Q1008


Station Type Date Time Source
LPPR Decoded METAR 2019/04/21 22:00 UTC NOAA

Porto / Pedras Rubras, Portugal (LPPR) 41-14N 008-41W 77M
Apr 21, 2019 - 06:00 PM EDT / 2019.04.21 2200 UTC
Wind: from the SE (130 degrees) at 8 MPH (7 KT):0
Visibility: greater than 7 mile(s):0
Temperature: 60 F (16 C)
Dew Point: 53 F (12 C)
Relative Humidity: 77%
Pressure (altimeter): 29.77 in. Hg (1008 hPa)
ob: LPPR 212200Z 13007KT CAVOK 16/12 Q1008
cycle: 22

Station Type Date Time Source
LPPR TAF 2019/04/21 18:18 UTC NOAA

TAF LPPR 211700Z 2118/2218 32010KT 9999 FEW025
BECMG 2118/2121 VRB03KT
TEMPO 2200/2206 08008KT
BECMG 2206/2209 18007KT
BECMG 2215/2217 22013KT 6000 -RA SCT008 BKN015

Example: see airport list